Airfield :
LOGIN :

Register | Disclaimer

   EN    FR    IT 

 










Legend :    VFR   Marginal VFR   IFR   Intensive IFR   Very Intensive IFR
Visi :
Ceiling :
>= 8 km
>= 3000ft
5 to 8 km
1000 to 3000 ft
1500m to 5 km
500 to 1000 ft
800 to 1500m
200 to 500 ft
< 800m
< 200 ft
Symbols :   Thunderstorms  Fog  Heavy snow  Heavy precipitations  Wind > 20 kt
SIGMETs :     Misc.  Thunderstorms  Icing  Turbulence  Mountain Waves  Volcanic Ashes






- Airport Elevation : 50 ft
- IATA code : KOI


EGPA - Kirkwall

CURRENT METAR :
  • 022220Z AUTO 17001KT 9999 BKN027/// OVC032/// 09/07 Q1014

EXPIRED METARs :
  • 022150Z AUTO 21001KT 9999 OVC029/// 09/06 Q1014
  • 022120Z AUTO 23002KT 9999 BKN030/// 09/05 Q1014
  • 022050Z AUTO 00000KT 9999 FEW027/// SCT032/// 08/05 Q1014
  • 022020Z AUTO 00000KT 9999 FEW033/// 10/06 Q1013
  • 021950Z AUTO 07001KT 9999 NCD 11/06 Q1013

TAF TAF EGPA
Valid from the 02 at 21:00 until the 03 at 06:00 UTC


021955Z 0221/0306 18005KT 9999 SCT030



MET'MAP, your aeronautical weather chart ! - Copyright ORBIFLY December 2007 - Disclaimer

ORBIFLY MET'MAP TEAM :

Programming & Development : Alexandra Zaïnal
Concept & original design : Baudouin d'Aumeries
Assistance for programming : Marc-Olivier Méhu
Technical & hardware support : Manuel Goepfert

Contact : metmap@orbifly.com




SOURCES & CREDITS :

   NOAA